Latest Weather Observations for Mount Boyce

IDN60801

Issued at 5:13 pm EDT Saturday 5 December 2020 (issued every 10 minutes, with the page automatically refreshed every 10 minutes)

About weather observations | Map of weather stations | Latest weather observations for NSW | Other Formats
Station Details ID: 063292 Name: MOUNT BOYCE AWS Lat: -33.62 Lon: 150.27 Height: 1080.0 m
Data from the previous 72 hours. | See also: Recent months at Mount Boyce
Date/Time
EDT
Temp
°C
App
Temp
°C
Dew
Point
°C
Rel
Hum
%
Delta-T
°C
Wind Press
QNH
hPa
Press
MSL
hPa
Rain since
9am
mm
Dir  Spd
km/h
Gust
km/h
Spd
kts
Gust
kts
05/05:00pm 18.8 15.3 14.5 76 2.6 WNW 26 44 14 24 - - 0.0
05/04:30pm 17.7 13.1 15.0 84 1.6 WNW 33 54 18 29 - - 0.0
05/04:03pm 18.2 14.3 14.5 79 2.2 WNW 28 54 15 29 - - 0.0
05/04:00pm 18.4 15.4 14.7 79 2.3 WNW 24 39 13 21 - - 0.0
05/03:30pm 19.2 16.5 14.7 75 2.8 WNW 22 44 12 24 - - 0.0
05/03:00pm 20.7 18.1 13.9 65 4.1 WNW 20 33 11 18 - - 0.0
05/02:30pm 20.5 17.7 13.2 63 4.4 WNW 20 35 11 19 - - 0.0
05/02:00pm 20.6 17.0 13.1 62 4.5 WNW 24 41 13 22 - - 0.0
05/01:30pm 20.1 14.9 12.8 63 4.3 W 32 52 17 28 - - 0.0
05/01:01pm 20.3 16.0 13.3 64 4.2 WSW 28 46 15 25 - - 0.0
05/01:00pm 20.0 15.1 12.7 63 4.3 WSW 30 46 16 25 - - 0.0
05/12:58pm 19.9 15.4 12.7 63 4.3 WSW 28 46 15 25 - - 0.0
05/12:57pm 19.8 15.3 12.6 63 4.3 WSW 28 41 15 22 - - 0.0
05/12:30pm 21.3 20.2 13.2 60 4.9 NNW 11 20 6 11 - - 0.0
05/12:00pm 21.4 21.0 14.1 63 4.5 NE 9 11 5 6 - - 0.0
05/11:30am 21.5 21.3 13.7 61 4.7 NE 7 13 4 7 - - 0.0
05/11:00am 20.7 20.0 13.2 62 4.5 NNE 9 17 5 9 - - 0.0
05/10:30am 19.6 18.8 12.8 65 4.0 NE 9 13 5 7 - - 0.0
05/10:00am 19.1 18.1 12.4 65 3.9 NE 9 19 5 10 - - 0.0
05/09:30am 18.5 17.3 12.7 69 3.4 ENE 11 20 6 11 - - 0.0
05/09:00am 16.8 15.3 11.9 73 2.8 NE 11 19 6 10 - - 0.0
05/08:30am 15.7 13.8 11.9 78 2.2 NE 13 24 7 13 - - 0.0
05/08:14am 14.0 12.4 11.7 86 1.3 NE 11 19 6 10 - - 0.0
05/08:00am 13.9 11.6 11.8 87 1.2 ENE 15 20 8 11 - - 0.0
05/07:46am 13.3 11.9 12.2 93 0.6 NE 11 17 6 9 - - 0.0
05/07:30am 12.3 11.1 11.5 95 0.4 NE 9 17 5 9 - - 0.0
05/07:00am 11.6 9.5 11.1 97 0.3 ENE 13 22 7 12 - - 0.0
05/06:30am 11.0 9.5 10.5 97 0.3 ENE 9 13 5 7 - - 0.0
05/06:00am 10.8 9.2 10.3 97 0.3 ENE 9 13 5 7 - - 0.0
05/05:30am 10.7 9.4 10.1 96 0.3 ENE 7 11 4 6 - - 0.0
05/05:00am 10.9 9.4 10.4 97 0.3 ENE 9 15 5 8 - - 0.0
05/04:30am 10.8 8.4 10.2 96 0.3 ENE 13 19 7 10 - - 0.0
05/04:00am 10.7 8.7 10.1 96 0.3 ENE 11 15 6 8 - - 0.0
05/03:30am 10.8 8.8 10.0 95 0.4 ENE 11 15 6 8 - - 0.0
05/03:00am 10.9 9.8 10.1 95 0.4 ENE 6 11 3 6 - - 0.0
05/02:30am 11.0 8.6 10.2 95 0.4 ENE 13 20 7 11 - - 0.0
05/02:23am 10.9 8.5 10.0 94 0.5 ENE 13 17 7 9 - - 0.0
05/02:04am 10.8 8.7 9.6 92 0.6 ENE 11 15 6 8 - - 0.0
05/02:00am 10.9 8.7 9.5 91 0.7 ENE 11 15 6 8 - - 0.0
05/01:30am 11.1 8.9 9.2 88 1.0 ENE 11 15 6 8 - - 0.0
05/01:00am 11.4 8.6 8.4 82 1.6 ENE 13 19 7 10 - - 0.0
05/12:30am 11.8 8.5 6.5 70 2.7 ENE 13 19 7 10 - - 0.0
05/12:00am 12.6 9.1 5.5 62 3.5 ENE 13 19 7 10 - - 0.0
 
Date/Time
EDT
Temp
°C
App
Temp
°C
Dew
Point
°C
Rel
Hum
%
Delta-T
°C
Wind Press
QNH
hPa
Press
MSL
hPa
Rain since
9am
mm
Dir  Spd
km/h
Gust
km/h
Spd
kts
Gust
kts
04/11:30pm 13.6 10.0 5.0 56 4.3 ENE 13 20 7 11 - - 0.0
04/11:00pm 14.2 10.7 5.6 56 4.3 ENE 13 22 7 12 - - 0.0
04/10:30pm 15.5 12.4 7.3 58 4.3 ENE 13 20 7 11 - - 0.0
04/10:00pm 19.6 17.4 -1.5 24 9.6 CALM 0 4 0 2 - - 0.0
04/09:30pm 19.6 15.7 -1.5 24 9.6 WSW 9 11 5 6 - - 0.0
04/09:00pm 19.0 15.6 -0.9 26 9.1 WSW 7 7 4 4 - - 0.0
04/08:30pm 20.0 16.6 -0.6 25 9.5 WSW 7 9 4 5 - - 0.0
04/08:00pm 21.2 17.5 -0.1 24 10.1 WSW 9 13 5 7 - - 0.0
04/07:30pm 23.1 18.1 -1.1 20 11.4 WSW 15 24 8 13 - - 0.0
04/07:00pm 24.1 18.3 -1.7 18 12.1 WSW 19 30 10 16 - - 0.0
04/06:30pm 25.0 18.7 -0.9 18 12.4 WSW 22 33 12 18 - - 0.0
04/06:00pm 25.1 18.2 -2.5 16 12.8 W 24 37 13 20 - - 0.0
04/05:30pm 25.7 19.5 -0.4 18 12.7 WSW 22 37 12 20 - - 0.0
04/05:12pm 25.2 17.6 -2.4 16 12.9 WSW 28 50 15 27 - - 0.0
04/05:00pm 26.1 19.7 0.7 19 12.6 W 24 39 13 21 - - 0.0
04/04:30pm 25.7 19.2 0.4 19 12.5 WSW 24 39 13 21 - - 0.0
04/04:05pm 25.3 18.1 0.8 20 12.1 WSW 28 46 15 25 - - 0.0
04/04:00pm 24.9 16.7 -1.0 18 12.4 WSW 32 46 17 25 - - 0.0
04/03:53pm 25.3 17.8 -1.5 17 12.7 WSW 28 48 15 26 - - 0.0
04/03:30pm 26.0 19.5 2.7 22 12.0 WSW 26 44 14 24 - - 0.0
04/03:00pm 25.4 18.6 0.8 20 12.2 W 26 41 14 22 - - 0.0
04/02:50pm 24.9 17.6 -0.3 19 12.2 WSW 28 46 15 25 - - 0.0
04/02:30pm 25.2 18.5 1.3 21 11.9 W 26 50 14 27 - - 0.0
04/02:00pm 24.0 16.8 0.4 21 11.5 W 28 46 15 25 - - 0.0
04/01:38pm 24.0 17.1 2.8 25 10.8 WSW 28 46 15 25 - - 0.0
04/01:30pm 24.1 18.5 3.4 26 10.6 W 22 41 12 22 - - 0.0
04/01:00pm 23.1 16.0 3.6 28 10.0 W 30 50 16 27 - - 0.0
04/12:30pm 22.6 15.7 6.4 35 8.7 W 32 50 17 27 - - 0.0
04/12:04pm 22.0 16.2 7.8 40 7.8 WSW 28 46 15 25 - - 0.0
04/12:00pm 22.0 17.4 8.2 41 7.6 W 22 39 12 21 - - 0.0
04/11:41am 21.5 16.0 9.1 45 7.0 W 28 46 15 25 - - 0.0
04/11:30am 21.6 18.5 12.2 55 5.6 W 20 33 11 18 - - 0.0
04/11:00am 19.9 14.2 11.1 57 5.1 W 32 44 17 24 - - 0.0
04/10:30am 19.3 15.4 13.3 68 3.6 WSW 26 46 14 25 - - 0.0
04/10:27am 18.8 14.3 12.5 67 3.7 WSW 28 46 15 25 - - 0.0
04/10:00am 18.4 14.7 13.9 75 2.7 WSW 26 44 14 24 - - 0.0
04/09:31am 17.6 14.3 14.1 80 2.1 W 24 35 13 19 - - 0.0
04/09:30am 17.5 14.1 13.8 79 2.2 W 24 35 13 19 - - 0.0
04/09:00am 17.3 15.1 14.9 86 1.5 W 20 33 11 18 - - 0.4
04/08:31am 16.4 14.6 16.1 98 0.2 W 20 39 11 21 - - 0.4
04/08:30am 16.4 14.6 16.1 98 0.2 W 20 39 11 21 - - 0.4
04/08:00am 15.5 13.4 15.3 99 0.1 WSW 20 35 11 19 - - 0.4
04/07:30am 15.2 13.6 15.0 99 0.1 WSW 17 22 9 12 - - 0.4
04/07:00am 15.1 13.5 14.9 99 0.1 W 17 24 9 13 - - 0.4
04/06:30am 14.6 12.8 14.4 99 0.1 W 17 24 9 13 - - 0.4
04/06:22am 14.5 12.6 14.3 99 0.1 W 17 22 9 12 - - 0.4
04/06:00am 14.4 12.5 14.2 99 0.1 W 17 22 9 12 - - 0.4
04/05:45am 14.1 12.9 13.9 99 0.1 W 13 19 7 10 - - 0.4
04/05:30am 14.2 13.0 14.0 99 0.1 W 13 17 7 9 - - 0.4
04/05:29am 14.1 13.3 13.9 99 0.1 W 11 17 6 9 - - 0.4
04/05:00am 14.3 13.5 14.1 99 0.1 W 11 17 6 9 - - 0.2
04/04:41am 14.4 13.3 14.2 99 0.1 W 13 17 7 9 - - 0.2
04/04:36am 14.4 13.3 14.2 99 0.1 W 13 19 7 10 - - 0.2
04/04:30am 14.4 13.3 14.2 99 0.1 WNW 13 19 7 10 - - 0.2
04/04:00am 14.5 14.2 14.3 99 0.1 W 9 17 5 9 - - 0.2
04/03:59am 14.5 14.2 14.3 99 0.1 W 9 15 5 8 - - 0.2
04/03:30am 14.5 14.2 14.3 99 0.1 W 9 13 5 7 - - 0.2
04/03:00am 14.6 13.9 14.4 99 0.1 W 11 15 6 8 - - 0.2
04/02:30am 14.9 14.7 14.7 99 0.1 W 9 15 5 8 - - 0.2
04/02:00am 14.8 14.6 14.6 99 0.1 WSW 9 13 5 7 - - 0.2
04/01:30am 14.5 14.5 14.3 99 0.1 W 7 11 4 6 - - 0.2
04/01:13am 14.2 14.1 14.0 99 0.1 W 7 9 4 5 - - 0.2
04/01:02am 14.4 14.6 14.2 99 0.1 WNW 6 9 3 5 - - 0.2
04/01:00am 14.5 14.7 14.3 99 0.1 WNW 6 9 3 5 - - 0.2
04/12:53am 14.5 14.5 14.3 99 0.1 WNW 7 11 4 6 - - 0.2
04/12:51am 14.5 14.5 14.3 99 0.1 WNW 7 11 4 6 - - 0.2
04/12:30am 14.5 15.5 14.3 99 0.1 W 2 6 1 3 - - 0.2
04/12:00am 15.0 14.8 14.8 99 0.1 W 9 13 5 7 - - 0.2
 
Date/Time
EDT
Temp
°C
App
Temp
°C
Dew
Point
°C
Rel
Hum
%
Delta-T
°C
Wind Press
QNH
hPa
Press
MSL
hPa
Rain since
9am
mm
Dir  Spd
km/h
Gust
km/h
Spd
kts
Gust
kts
03/11:30pm 15.0 14.8 14.8 99 0.1 W 9 13 5 7 - - 0.2
03/11:00pm 15.0 16.2 14.8 99 0.1 WSW 2 9 1 5 - - 0.2
03/10:30pm 15.0 16.6 14.8 99 0.1 CALM 0 2 0 1 - - 0.2
03/10:00pm 14.7 15.8 14.5 99 0.1 NW 2 7 1 4 - - 0.2
03/09:30pm 14.8 15.0 14.6 99 0.1 ENE 7 9 4 5 - - 0.2
03/09:00pm 14.7 13.6 14.4 98 0.2 NE 13 17 7 9 - - 0.2
03/08:30pm 15.2 15.4 14.7 97 0.3 ENE 7 13 4 7 - - 0.2
03/08:00pm 15.2 15.0 14.6 96 0.4 ENE 9 17 5 9 - - 0.2
03/07:30pm 15.4 15.5 14.4 94 0.6 ENE 7 9 4 5 - - 0.2
03/07:00pm 15.8 15.6 14.7 93 0.7 ENE 9 13 5 7 - - 0.2
03/06:30pm 16.3 16.0 14.5 89 1.1 ENE 9 13 5 7 - - 0.2
03/06:00pm 16.9 16.8 14.9 88 1.2 ENE 9 15 5 8 - - 0.2
03/05:30pm 17.0 16.8 14.6 86 1.5 ENE 9 15 5 8 - - 0.2
03/05:00pm 18.4 18.4 15.3 82 1.9 ENE 9 13 5 7 - - 0.2
03/04:30pm 18.2 17.7 14.9 81 2.0 ENE 11 15 6 8 - - 0.2
03/04:00pm 18.5 18.6 15.4 82 1.9 ENE 9 15 5 8 - - 0.2
03/03:30pm 18.3 17.6 14.4 78 2.4 ENE 11 17 6 9 - - 0.2
03/03:00pm 18.9 18.6 15.4 80 2.2 ENE 11 19 6 10 - - 0.2
03/02:30pm 18.2 17.6 14.5 79 2.2 E 11 17 6 9 - - 0.0
03/02:18pm 17.8 17.3 13.7 77 2.5 E 9 17 5 9 - - 0.0
03/02:00pm 18.8 19.0 15.7 82 1.9 ENE 9 17 5 9 - - 0.0
03/01:30pm 18.5 17.6 14.8 79 2.3 ENE 13 22 7 12 - - 0.0
03/01:00pm 17.5 16.8 14.2 81 2.0 NE 11 20 6 11 - - 0.0
03/12:30pm 16.3 15.5 14.1 87 1.3 NE 11 17 6 9 - - 0.0
03/12:00pm 16.5 15.9 14.7 89 1.1 NE 11 17 6 9 - - 0.0
03/11:30am 15.5 15.3 14.7 95 0.5 ENE 9 20 5 11 - - 0.0
03/11:00am 14.9 13.4 14.3 96 0.4 NE 15 24 8 13 - - 0.0
03/10:36am 14.3 13.0 13.7 96 0.4 NE 13 22 7 12 - - 0.0
03/10:30am 14.5 13.4 14.3 99 0.1 NE 13 22 7 12 - - 0.0
03/10:18am 13.8 13.1 13.2 96 0.3 NE 9 17 5 9 - - 0.0
03/10:11am 14.1 13.6 13.9 99 0.1 NE 9 17 5 9 - - 0.0
03/10:00am 14.0 12.7 13.8 99 0.1 NE 13 22 7 12 - - 0.0
03/09:30am 13.9 13.4 13.7 99 0.1 ENE 9 17 5 9 - - 0.0
03/09:00am 13.0 12.2 12.8 99 0.1 NE 9 20 5 11 - - 5.4
03/08:30am 12.9 12.0 12.7 99 0.1 ENE 9 15 5 8 - - 5.4
03/08:00am 12.5 11.5 12.3 99 0.1 NE 9 19 5 10 - - 5.4
03/07:30am 12.2 11.1 12.0 99 0.1 ENE 9 19 5 10 - - 5.4
03/07:00am 12.1 11.4 11.9 99 0.1 ENE 7 15 4 8 - - 5.4
03/06:30am 11.8 11.0 11.6 99 0.1 NE 7 17 4 9 - - 5.2
03/06:00am 11.7 10.8 11.5 99 0.1 ENE 7 19 4 10 - - 5.2
03/05:30am 11.8 11.0 11.6 99 0.1 ENE 7 15 4 8 - - 5.0
03/05:00am 11.5 10.2 11.3 99 0.1 ENE 9 17 5 9 - - 5.0
03/04:30am 11.5 10.2 11.3 99 0.1 ENE 9 17 5 9 - - 4.8
03/04:00am 11.6 10.3 11.4 99 0.1 ENE 9 17 5 9 - - 4.8
03/03:30am 11.6 10.3 11.4 99 0.1 ENE 9 13 5 7 - - 4.6
03/03:00am 11.4 9.3 11.2 99 0.1 ENE 13 20 7 11 - - 4.4
03/02:30am 11.3 9.2 11.1 99 0.1 ENE 13 20 7 11 - - 4.2
03/02:00am 11.5 9.4 11.3 99 0.1 ENE 13 24 7 13 - - 4.2
03/01:30am 11.8 10.6 11.6 99 0.1 ENE 9 22 5 12 - - 3.6
03/01:00am 11.7 10.1 11.5 99 0.1 ENE 11 22 6 12 - - 3.2
03/12:30am 12.0 10.5 11.8 99 0.1 ENE 11 19 6 10 - - 3.0
03/12:00am 12.0 10.5 11.8 99 0.1 ENE 11 19 6 10 - - 2.8
 
Date/Time
EDT
Temp
°C
App
Temp
°C
Dew
Point
°C
Rel
Hum
%
Delta-T
°C
Wind Press
QNH
hPa
Press
MSL
hPa
Rain since
9am
mm
Dir  Spd
km/h
Gust
km/h
Spd
kts
Gust
kts
02/11:30pm 11.9 10.0 11.7 99 0.1 ENE 13 24 7 13 - - 2.4
02/11:00pm 12.2 10.4 12.0 99 0.1 ENE 13 20 7 11 - - 2.2
02/10:30pm 12.3 10.5 12.1 99 0.1 ENE 13 22 7 12 - - 2.0
02/10:00pm 12.5 10.7 12.2 98 0.2 ENE 13 28 7 15 - - 1.8
02/09:30pm 12.7 11.0 12.5 99 0.1 ENE 13 28 7 15 - - 1.4
02/09:00pm 12.7 10.6 12.4 98 0.2 ENE 15 26 8 14 - - 1.0
02/08:30pm 13.1 11.5 12.8 98 0.2 ENE 13 22 7 12 - - 0.8
02/08:00pm 13.3 11.7 12.8 97 0.3 ENE 13 22 7 12 - - 0.4
02/07:30pm 13.5 11.5 12.7 95 0.5 ENE 15 28 8 15 - - 0.4
02/07:00pm 14.1 12.7 13.3 95 0.5 ENE 13 20 7 11 - - 0.2
02/06:30pm 14.8 13.8 13.3 91 0.9 ENE 11 17 6 9 - - 0.2
02/06:00pm 15.0 13.1 13.0 88 1.2 ENE 15 24 8 13 - - 0.2
02/05:30pm 16.5 15.2 13.6 83 1.7 ENE 13 20 7 11 - - 0.2
02/05:27pm 16.5 15.2 13.6 83 1.7 ENE 13 20 7 11 - - 0.2

Other formats

Comma delimited format used in spreadsheet applications
http://www.bom.gov.au/fwo/IDN60801/IDN60801.94743.axf

JavaScript Object Notation format (JSON) in row-major order
http://www.bom.gov.au/fwo/IDN60801/IDN60801.94743.json

Data quality

Most of these data are generated automatically and are frequently updated. Quality checks on data are not normally performed. It is possible for incorrect values to appear. Refer to information at About Latest Weather Observations and please check the disclaimer before using these data.